sensor_id;sensor_type;location;lat;lon;timestamp;temperature;humidity
22940;DHT22;11636;52.086;5.090;2023-04-03T00:02:14;4.50;99.90
22940;DHT22;11636;52.086;5.090;2023-04-03T00:04:41;4.40;99.90
22940;DHT22;11636;52.086;5.090;2023-04-03T00:07:14;4.40;99.90
22940;DHT22;11636;52.086;5.090;2023-04-03T00:09:41;4.40;99.90
22940;DHT22;11636;52.086;5.090;2023-04-03T00:12:14;4.40;99.90
22940;DHT22;11636;52.086;5.090;2023-04-03T00:14:42;4.40;99.90
22940;DHT22;11636;52.086;5.090;2023-04-03T00:17:15;4.30;99.90
22940;DHT22;11636;52.086;5.090;2023-04-03T00:19:42;4.30;99.90
22940;DHT22;11636;52.086;5.090;2023-04-03T00:22:09;4.30;99.90
22940;DHT22;11636;52.086;5.090;2023-04-03T00:24:42;4.30;99.90
22940;DHT22;11636;52.086;5.090;2023-04-03T00:27:09;4.30;99.90
22940;DHT22;11636;52.086;5.090;2023-04-03T00:29:37;4.30;99.90
22940;DHT22;11636;52.086;5.090;2023-04-03T00:32:10;4.20;99.90
22940;DHT22;11636;52.086;5.090;2023-04-03T00:34:37;4.20;99.90
22940;DHT22;11636;52.086;5.090;2023-04-03T00:37:04;4.20;99.90
22940;DHT22;11636;52.086;5.090;2023-04-03T00:39:37;4.20;99.90
22940;DHT22;11636;52.086;5.090;2023-04-03T00:42:04;4.10;99.90
22940;DHT22;11636;52.086;5.090;2023-04-03T00:47:08;4.10;99.90
22940;DHT22;11636;52.086;5.090;2023-04-03T00:49:37;4.10;99.90
22940;DHT22;11636;52.086;5.090;2023-04-03T00:52:17;4.00;99.90
22940;DHT22;11636;52.086;5.090;2023-04-03T00:54:45;4.00;99.90
22940;DHT22;11636;52.086;5.090;2023-04-03T00:57:19;4.00;99.90
22940;DHT22;11636;52.086;5.090;2023-04-03T00:59:59;4.00;99.90
22940;DHT22;11636;52.086;5.090;2023-04-03T01:02:34;3.90;99.90
22940;DHT22;11636;52.086;5.090;2023-04-03T01:05:02;3.90;99.90
22940;DHT22;11636;52.086;5.090;2023-04-03T01:07:35;3.90;99.90
22940;DHT22;11636;52.086;5.090;2023-04-03T01:10:08;3.90;99.90
22940;DHT22;11636;52.086;5.090;2023-04-03T01:12:46;3.80;99.90
22940;DHT22;11636;52.086;5.090;2023-04-03T01:15:21;3.80;99.90
22940;DHT22;11636;52.086;5.090;2023-04-03T01:17:57;3.80;99.90
22940;DHT22;11636;52.086;5.090;2023-04-03T01:25:46;3.70;99.90
22940;DHT22;11636;52.086;5.090;2023-04-03T01:28:33;3.70;99.90
22940;DHT22;11636;52.086;5.090;2023-04-03T01:31:19;3.70;99.90
22940;DHT22;11636;52.086;5.090;2023-04-03T01:33:55;3.70;99.90
22940;DHT22;11636;52.086;5.090;2023-04-03T01:36:24;3.70;99.90
22940;DHT22;11636;52.086;5.090;2023-04-03T01:38:52;3.70;99.90
22940;DHT22;11636;52.086;5.090;2023-04-03T01:41:27;3.60;99.90
22940;DHT22;11636;52.086;5.090;2023-04-03T01:43:54;3.60;99.90
22940;DHT22;11636;52.086;5.090;2023-04-03T01:46:27;3.60;99.90
22940;DHT22;11636;52.086;5.090;2023-04-03T01:48:54;3.60;99.90
22940;DHT22;11636;52.086;5.090;2023-04-03T01:51:21;3.60;99.90
22940;DHT22;11636;52.086;5.090;2023-04-03T01:53:54;3.60;99.90
22940;DHT22;11636;52.086;5.090;2023-04-03T01:56:21;3.60;99.90
22940;DHT22;11636;52.086;5.090;2023-04-03T01:58:48;3.50;99.90
22940;DHT22;11636;52.086;5.090;2023-04-03T02:01:21;3.50;99.90
22940;DHT22;11636;52.086;5.090;2023-04-03T02:03:48;3.40;99.90
22940;DHT22;11636;52.086;5.090;2023-04-03T02:06:21;3.50;99.90
22940;DHT22;11636;52.086;5.090;2023-04-03T02:08:55;3.40;99.90
22940;DHT22;11636;52.086;5.090;2023-04-03T02:11:22;3.40;99.90
22940;DHT22;11636;52.086;5.090;2023-04-03T02:13:49;3.40;99.90
22940;DHT22;11636;52.086;5.090;2023-04-03T02:16:22;3.40;99.90
22940;DHT22;11636;52.086;5.090;2023-04-03T02:18:56;3.40;99.90
22940;DHT22;11636;52.086;5.090;2023-04-03T02:21:30;3.40;99.90
22940;DHT22;11636;52.086;5.090;2023-04-03T02:24:03;3.30;99.90
22940;DHT22;11636;52.086;5.090;2023-04-03T02:26:30;3.40;99.90
22940;DHT22;11636;52.086;5.090;2023-04-03T02:29:03;3.30;99.90
22940;DHT22;11636;52.086;5.090;2023-04-03T02:31:30;3.30;99.90
22940;DHT22;11636;52.086;5.090;2023-04-03T02:34:03;3.30;99.90
22940;DHT22;11636;52.086;5.090;2023-04-03T02:36:36;3.30;99.90
22940;DHT22;11636;52.086;5.090;2023-04-03T02:39:10;3.30;99.90
22940;DHT22;11636;52.086;5.090;2023-04-03T02:41:37;3.20;99.90
22940;DHT22;11636;52.086;5.090;2023-04-03T02:44:11;3.30;99.90
22940;DHT22;11636;52.086;5.090;2023-04-03T02:46:39;3.30;99.90
22940;DHT22;11636;52.086;5.090;2023-04-03T02:49:06;3.20;99.90
22940;DHT22;11636;52.086;5.090;2023-04-03T02:51:42;3.20;99.90
22940;DHT22;11636;52.086;5.090;2023-04-03T02:54:09;3.20;99.90
22940;DHT22;11636;52.086;5.090;2023-04-03T02:56:42;3.20;99.90
22940;DHT22;11636;52.086;5.090;2023-04-03T02:59:09;3.20;99.90
22940;DHT22;11636;52.086;5.090;2023-04-03T03:01:42;3.20;99.90
22940;DHT22;11636;52.086;5.090;2023-04-03T03:04:09;3.20;99.90
22940;DHT22;11636;52.086;5.090;2023-04-03T03:06:42;3.10;99.90
22940;DHT22;11636;52.086;5.090;2023-04-03T03:09:10;3.10;99.90
22940;DHT22;11636;52.086;5.090;2023-04-03T03:11:43;3.10;99.90
22940;DHT22;11636;52.086;5.090;2023-04-03T03:14:10;3.10;99.90
22940;DHT22;11636;52.086;5.090;2023-04-03T03:16:44;3.10;99.90
22940;DHT22;11636;52.086;5.090;2023-04-03T03:19:10;3.00;99.90
22940;DHT22;11636;52.086;5.090;2023-04-03T03:21:44;3.00;99.90
22940;DHT22;11636;52.086;5.090;2023-04-03T03:24:11;3.00;99.90
22940;DHT22;11636;52.086;5.090;2023-04-03T03:26:45;3.00;99.90
22940;DHT22;11636;52.086;5.090;2023-04-03T03:29:11;3.00;99.90
22940;DHT22;11636;52.086;5.090;2023-04-03T03:31:38;2.90;99.90
22940;DHT22;11636;52.086;5.090;2023-04-03T03:34:11;2.90;99.90
22940;DHT22;11636;52.086;5.090;2023-04-03T03:36:38;2.90;99.90
22940;DHT22;11636;52.086;5.090;2023-04-03T03:39:11;2.80;99.90
22940;DHT22;11636;52.086;5.090;2023-04-03T03:41:38;2.80;99.90
22940;DHT22;11636;52.086;5.090;2023-04-03T03:44:05;2.80;99.90
22940;DHT22;11636;52.086;5.090;2023-04-03T03:46:40;2.80;99.90
22940;DHT22;11636;52.086;5.090;2023-04-03T03:49:07;2.80;99.90
22940;DHT22;11636;52.086;5.090;2023-04-03T03:51:35;2.80;99.90
22940;DHT22;11636;52.086;5.090;2023-04-03T03:54:09;2.80;99.90
22940;DHT22;11636;52.086;5.090;2023-04-03T03:56:36;2.80;99.90
22940;DHT22;11636;52.086;5.090;2023-04-03T03:59:11;2.70;99.90
22940;DHT22;11636;52.086;5.090;2023-04-03T04:01:39;2.70;99.90
22940;DHT22;11636;52.086;5.090;2023-04-03T04:04:06;2.70;99.90
22940;DHT22;11636;52.086;5.090;2023-04-03T04:06:39;2.70;99.90
22940;DHT22;11636;52.086;5.090;2023-04-03T04:09:06;2.70;99.90
22940;DHT22;11636;52.086;5.090;2023-04-03T04:11:33;2.70;99.90
22940;DHT22;11636;52.086;5.090;2023-04-03T04:14:10;2.70;99.90
22940;DHT22;11636;52.086;5.090;2023-04-03T04:16:46;2.70;99.90
22940;DHT22;11636;52.086;5.090;2023-04-03T04:19:14;2.70;99.90
22940;DHT22;11636;52.086;5.090;2023-04-03T04:21:47;2.70;99.90
22940;DHT22;11636;52.086;5.090;2023-04-03T04:24:14;2.70;99.90
22940;DHT22;11636;52.086;5.090;2023-04-03T04:26:48;2.60;99.90
22940;DHT22;11636;52.086;5.090;2023-04-03T04:29:15;2.60;99.90
22940;DHT22;11636;52.086;5.090;2023-04-03T04:31:48;2.60;99.90
22940;DHT22;11636;52.086;5.090;2023-04-03T04:34:15;2.60;99.90
22940;DHT22;11636;52.086;5.090;2023-04-03T04:36:49;2.60;99.90
22940;DHT22;11636;52.086;5.090;2023-04-03T04:39:16;2.60;99.90
22940;DHT22;11636;52.086;5.090;2023-04-03T04:41:49;2.60;99.90
22940;DHT22;11636;52.086;5.090;2023-04-03T04:44:17;2.50;99.90
22940;DHT22;11636;52.086;5.090;2023-04-03T04:46:49;2.50;99.90
22940;DHT22;11636;52.086;5.090;2023-04-03T04:49:16;2.50;99.90
22940;DHT22;11636;52.086;5.090;2023-04-03T04:51:49;2.50;99.90
22940;DHT22;11636;52.086;5.090;2023-04-03T04:54:18;2.50;99.90
22940;DHT22;11636;52.086;5.090;2023-04-03T04:56:45;2.50;99.90
22940;DHT22;11636;52.086;5.090;2023-04-03T04:59:18;2.50;99.90
22940;DHT22;11636;52.086;5.090;2023-04-03T05:01:47;2.50;99.90
22940;DHT22;11636;52.086;5.090;2023-04-03T05:04:21;2.50;99.90
22940;DHT22;11636;52.086;5.090;2023-04-03T05:06:48;2.50;99.90
22940;DHT22;11636;52.086;5.090;2023-04-03T05:09:21;2.50;99.90
22940;DHT22;11636;52.086;5.090;2023-04-03T05:11:48;2.50;99.90
22940;DHT22;11636;52.086;5.090;2023-04-03T05:14:22;2.50;99.90
22940;DHT22;11636;52.086;5.090;2023-04-03T05:16:50;2.50;99.90
22940;DHT22;11636;52.086;5.090;2023-04-03T05:19:27;2.50;99.90
22940;DHT22;11636;52.086;5.090;2023-04-03T05:21:53;2.50;99.90
22940;DHT22;11636;52.086;5.090;2023-04-03T05:24:28;2.50;99.90
22940;DHT22;11636;52.086;5.090;2023-04-03T05:26:54;2.50;99.90
22940;DHT22;11636;52.086;5.090;2023-04-03T05:29:21;2.50;99.90
22940;DHT22;11636;52.086;5.090;2023-04-03T05:31:54;2.50;99.90
22940;DHT22;11636;52.086;5.090;2023-04-03T05:34:22;2.50;99.90
22940;DHT22;11636;52.086;5.090;2023-04-03T05:36:56;2.50;99.90
22940;DHT22;11636;52.086;5.090;2023-04-03T05:39:23;2.50;99.90
22940;DHT22;11636;52.086;5.090;2023-04-03T05:41:57;2.50;99.90
22940;DHT22;11636;52.086;5.090;2023-04-03T05:44:30;2.50;99.90
22940;DHT22;11636;52.086;5.090;2023-04-03T05:46:56;2.50;99.90
22940;DHT22;11636;52.086;5.090;2023-04-03T05:49:23;2.50;99.90
22940;DHT22;11636;52.086;5.090;2023-04-03T05:51:57;2.50;99.90
22940;DHT22;11636;52.086;5.090;2023-04-03T05:54:25;2.50;99.90
22940;DHT22;11636;52.086;5.090;2023-04-03T05:56:59;2.50;99.90
22940;DHT22;11636;52.086;5.090;2023-04-03T05:59:26;2.50;99.90
22940;DHT22;11636;52.086;5.090;2023-04-03T06:02:00;2.50;99.90
22940;DHT22;11636;52.086;5.090;2023-04-03T06:04:27;2.50;99.90
22940;DHT22;11636;52.086;5.090;2023-04-03T06:07:01;2.50;99.90
22940;DHT22;11636;52.086;5.090;2023-04-03T06:09:29;2.50;99.90
22940;DHT22;11636;52.086;5.090;2023-04-03T06:12:03;2.60;99.90
22940;DHT22;11636;52.086;5.090;2023-04-03T06:14:30;2.50;99.90
22940;DHT22;11636;52.086;5.090;2023-04-03T06:17:03;2.60;99.90
22940;DHT22;11636;52.086;5.090;2023-04-03T06:19:30;2.60;99.90
22940;DHT22;11636;52.086;5.090;2023-04-03T06:22:07;2.60;99.90
22940;DHT22;11636;52.086;5.090;2023-04-03T06:24:34;2.60;99.90
22940;DHT22;11636;52.086;5.090;2023-04-03T06:27:10;2.60;99.90
22940;DHT22;11636;52.086;5.090;2023-04-03T06:29:39;2.60;99.90
22940;DHT22;11636;52.086;5.090;2023-04-03T06:32:12;2.70;99.90
22940;DHT22;11636;52.086;5.090;2023-04-03T06:34:38;2.70;99.90
22940;DHT22;11636;52.086;5.090;2023-04-03T06:37:06;2.70;99.90
22940;DHT22;11636;52.086;5.090;2023-04-03T06:39:40;2.80;99.90
22940;DHT22;11636;52.086;5.090;2023-04-03T06:42:14;2.80;99.90
22940;DHT22;11636;52.086;5.090;2023-04-03T06:44:47;2.90;99.90
22940;DHT22;11636;52.086;5.090;2023-04-03T06:47:21;2.90;99.90
22940;DHT22;11636;52.086;5.090;2023-04-03T06:49:47;3.00;99.90
22940;DHT22;11636;52.086;5.090;2023-04-03T06:52:21;3.00;99.90
22940;DHT22;11636;52.086;5.090;2023-04-03T06:54:55;3.10;99.90
22940;DHT22;11636;52.086;5.090;2023-04-03T06:57:24;3.10;99.90
22940;DHT22;11636;52.086;5.090;2023-04-03T06:59:58;3.20;99.90
22940;DHT22;11636;52.086;5.090;2023-04-03T07:02:31;3.20;99.90
22940;DHT22;11636;52.086;5.090;2023-04-03T07:05:05;3.20;99.90
22940;DHT22;11636;52.086;5.090;2023-04-03T07:07:39;3.30;99.90
22940;DHT22;11636;52.086;5.090;2023-04-03T07:10:14;3.30;99.90
22940;DHT22;11636;52.086;5.090;2023-04-03T07:12:42;3.30;99.90
22940;DHT22;11636;52.086;5.090;2023-04-03T07:15:09;3.40;99.90
22940;DHT22;11636;52.086;5.090;2023-04-03T07:17:44;3.40;99.90
22940;DHT22;11636;52.086;5.090;2023-04-03T07:20:11;3.40;99.90
22940;DHT22;11636;52.086;5.090;2023-04-03T07:22:38;3.50;99.90
22940;DHT22;11636;52.086;5.090;2023-04-03T07:25:12;3.50;99.90
22940;DHT22;11636;52.086;5.090;2023-04-03T07:27:39;3.60;99.90
22940;DHT22;11636;52.086;5.090;2023-04-03T07:30:06;3.60;99.90
22940;DHT22;11636;52.086;5.090;2023-04-03T07:32:41;3.70;99.90
22940;DHT22;11636;52.086;5.090;2023-04-03T07:35:08;3.70;99.90
22940;DHT22;11636;52.086;5.090;2023-04-03T07:37:42;3.70;99.90
22940;DHT22;11636;52.086;5.090;2023-04-03T07:40:09;3.80;99.90
22940;DHT22;11636;52.086;5.090;2023-04-03T07:42:36;3.80;99.90
22940;DHT22;11636;52.086;5.090;2023-04-03T07:45:10;3.90;99.90
22940;DHT22;11636;52.086;5.090;2023-04-03T07:47:37;3.90;99.90
22940;DHT22;11636;52.086;5.090;2023-04-03T07:50:04;4.00;99.90
22940;DHT22;11636;52.086;5.090;2023-04-03T07:52:38;4.00;99.90
22940;DHT22;11636;52.086;5.090;2023-04-03T07:55:05;4.00;99.90
22940;DHT22;11636;52.086;5.090;2023-04-03T07:57:32;4.10;99.90
22940;DHT22;11636;52.086;5.090;2023-04-03T08:00:06;4.20;99.90
22940;DHT22;11636;52.086;5.090;2023-04-03T08:02:33;4.20;99.90
22940;DHT22;11636;52.086;5.090;2023-04-03T08:05:00;4.20;99.90
22940;DHT22;11636;52.086;5.090;2023-04-03T08:07:33;4.30;99.90
22940;DHT22;11636;52.086;5.090;2023-04-03T08:10:00;4.30;99.90
22940;DHT22;11636;52.086;5.090;2023-04-03T08:12:37;4.30;99.90
22940;DHT22;11636;52.086;5.090;2023-04-03T08:15:06;4.40;99.90
22940;DHT22;11636;52.086;5.090;2023-04-03T08:17:49;4.40;99.90
22940;DHT22;11636;52.086;5.090;2023-04-03T08:20:17;4.50;99.90
22940;DHT22;11636;52.086;5.090;2023-04-03T08:22:51;4.50;99.90
22940;DHT22;11636;52.086;5.090;2023-04-03T08:25:18;4.60;99.90
22940;DHT22;11636;52.086;5.090;2023-04-03T08:27:45;4.70;99.90
22940;DHT22;11636;52.086;5.090;2023-04-03T08:30:19;4.80;99.90
22940;DHT22;11636;52.086;5.090;2023-04-03T08:32:46;4.80;99.90
22940;DHT22;11636;52.086;5.090;2023-04-03T08:35:13;4.90;99.90
22940;DHT22;11636;52.086;5.090;2023-04-03T08:37:46;5.10;99.90
22940;DHT22;11636;52.086;5.090;2023-04-03T08:40:15;5.20;99.90
22940;DHT22;11636;52.086;5.090;2023-04-03T08:43:28;5.40;99.90
22940;DHT22;11636;52.086;5.090;2023-04-03T08:46:05;5.60;99.90
22940;DHT22;11636;52.086;5.090;2023-04-03T08:48:39;5.80;99.90
22940;DHT22;11636;52.086;5.090;2023-04-03T08:51:16;6.00;99.90
22940;DHT22;11636;52.086;5.090;2023-04-03T08:54:00;6.20;99.90
22940;DHT22;11636;52.086;5.090;2023-04-03T08:56:36;6.30;99.90
22940;DHT22;11636;52.086;5.090;2023-04-03T08:59:26;6.40;99.90
22940;DHT22;11636;52.086;5.090;2023-04-03T09:01:54;6.60;99.90
22940;DHT22;11636;52.086;5.090;2023-04-03T09:04:36;6.70;99.90
22940;DHT22;11636;52.086;5.090;2023-04-03T09:07:16;6.80;99.90
22940;DHT22;11636;52.086;5.090;2023-04-03T09:09:50;6.90;99.90
22940;DHT22;11636;52.086;5.090;2023-04-03T09:12:27;7.00;99.90
22940;DHT22;11636;52.086;5.090;2023-04-03T09:15:21;7.10;99.90
22940;DHT22;11636;52.086;5.090;2023-04-03T09:23:45;7.50;99.90
22940;DHT22;11636;52.086;5.090;2023-04-03T09:26:25;7.60;99.90
22940;DHT22;11636;52.086;5.090;2023-04-03T09:29:06;7.70;98.90
22940;DHT22;11636;52.086;5.090;2023-04-03T09:31:42;7.90;98.10
22940;DHT22;11636;52.086;5.090;2023-04-03T09:34:28;8.00;96.70
22940;DHT22;11636;52.086;5.090;2023-04-03T09:36:59;8.00;94.20
22940;DHT22;11636;52.086;5.090;2023-04-03T09:39:53;8.00;93.80
22940;DHT22;11636;52.086;5.090;2023-04-03T09:42:28;8.10;92.90
22940;DHT22;11636;52.086;5.090;2023-04-03T09:44:58;8.10;91.20
22940;DHT22;11636;52.086;5.090;2023-04-03T09:52:44;8.40;91.20
22940;DHT22;11636;52.086;5.090;2023-04-03T09:55:26;8.50;90.90
22940;DHT22;11636;52.086;5.090;2023-04-03T09:58:01;8.50;90.20
22940;DHT22;11636;52.086;5.090;2023-04-03T10:00:37;8.60;90.50
22940;DHT22;11636;52.086;5.090;2023-04-03T10:03:29;8.70;90.50
22940;DHT22;11636;52.086;5.090;2023-04-03T10:06:03;8.80;88.10
22940;DHT22;11636;52.086;5.090;2023-04-03T10:08:33;8.90;88.60
22940;DHT22;11636;52.086;5.090;2023-04-03T10:11:13;9.00;85.50
22940;DHT22;11636;52.086;5.090;2023-04-03T10:16:41;9.10;86.00
22940;DHT22;11636;52.086;5.090;2023-04-03T10:19:34;9.20;85.80
22940;DHT22;11636;52.086;5.090;2023-04-03T10:24:51;9.40;84.40
22940;DHT22;11636;52.086;5.090;2023-04-03T10:30:42;9.50;77.90
22940;DHT22;11636;52.086;5.090;2023-04-03T10:39:04;9.80;78.50
22940;DHT22;11636;52.086;5.090;2023-04-03T10:51:39;10.20;72.00
22940;DHT22;11636;52.086;5.090;2023-04-03T10:54:25;10.20;65.80
22940;DHT22;11636;52.086;5.090;2023-04-03T10:57:01;10.20;66.80
22940;DHT22;11636;52.086;5.090;2023-04-03T10:59:47;10.30;66.00
22940;DHT22;11636;52.086;5.090;2023-04-03T11:02:30;10.20;62.80
22940;DHT22;11636;52.086;5.090;2023-04-03T11:05:07;10.30;62.70
22940;DHT22;11636;52.086;5.090;2023-04-03T11:07:50;10.40;63.20
22940;DHT22;11636;52.086;5.090;2023-04-03T11:10:42;10.40;60.10
22940;DHT22;11636;52.086;5.090;2023-04-03T11:16:23;10.60;60.50
22940;DHT22;11636;52.086;5.090;2023-04-03T11:19:03;10.80;60.10
22940;DHT22;11636;52.086;5.090;2023-04-03T11:21:44;10.90;59.20
22940;DHT22;11636;52.086;5.090;2023-04-03T11:24:22;10.90;59.00
22940;DHT22;11636;52.086;5.090;2023-04-03T11:26:57;11.00;57.60
22940;DHT22;11636;52.086;5.090;2023-04-03T11:29:36;11.10;57.30
22940;DHT22;11636;52.086;5.090;2023-04-03T11:34:45;11.20;58.90
22940;DHT22;11636;52.086;5.090;2023-04-03T11:40:06;11.50;58.00
22940;DHT22;11636;52.086;5.090;2023-04-03T11:42:46;11.60;58.90
22940;DHT22;11636;52.086;5.090;2023-04-03T11:45:25;11.60;58.80
22940;DHT22;11636;52.086;5.090;2023-04-03T11:50:56;11.80;59.40
22940;DHT22;11636;52.086;5.090;2023-04-03T11:53:32;11.90;58.90
22940;DHT22;11636;52.086;5.090;2023-04-03T11:56:02;11.90;57.70
22940;DHT22;11636;52.086;5.090;2023-04-03T11:58:36;11.90;57.90
22940;DHT22;11636;52.086;5.090;2023-04-03T12:01:06;11.90;58.10
22940;DHT22;11636;52.086;5.090;2023-04-03T12:03:56;12.10;59.20
22940;DHT22;11636;52.086;5.090;2023-04-03T12:09:00;12.40;58.90
22940;DHT22;11636;52.086;5.090;2023-04-03T12:11:32;12.40;59.00
22940;DHT22;11636;52.086;5.090;2023-04-03T12:14:16;12.60;59.00
22940;DHT22;11636;52.086;5.090;2023-04-03T12:16:52;12.70;58.30
22940;DHT22;11636;52.086;5.090;2023-04-03T12:19:36;12.90;58.70
22940;DHT22;11636;52.086;5.090;2023-04-03T12:22:10;12.90;58.60
22940;DHT22;11636;52.086;5.090;2023-04-03T12:24:51;13.10;58.70
22940;DHT22;11636;52.086;5.090;2023-04-03T12:27:34;13.10;58.40
22940;DHT22;11636;52.086;5.090;2023-04-03T12:36:23;13.30;57.90
22940;DHT22;11636;52.086;5.090;2023-04-03T12:45:09;13.60;57.10
22940;DHT22;11636;52.086;5.090;2023-04-03T12:47:53;13.60;56.60
22940;DHT22;11636;52.086;5.090;2023-04-03T12:50:31;13.60;56.30
22940;DHT22;11636;52.086;5.090;2023-04-03T12:53:25;13.70;56.20
22940;DHT22;11636;52.086;5.090;2023-04-03T12:56:25;13.60;56.00
22940;DHT22;11636;52.086;5.090;2023-04-03T12:59:22;13.80;55.80
22940;DHT22;11636;52.086;5.090;2023-04-03T13:01:54;13.80;54.50
22940;DHT22;11636;52.086;5.090;2023-04-03T13:04:31;13.90;55.20
22940;DHT22;11636;52.086;5.090;2023-04-03T13:06:58;14.10;54.90
22940;DHT22;11636;52.086;5.090;2023-04-03T13:09:31;14.20;53.70
22940;DHT22;11636;52.086;5.090;2023-04-03T13:12:15;14.20;54.10
22940;DHT22;11636;52.086;5.090;2023-04-03T13:14:57;14.30;54.20
22940;DHT22;11636;52.086;5.090;2023-04-03T13:17:30;14.30;52.70
22940;DHT22;11636;52.086;5.090;2023-04-03T13:23:05;14.60;54.50
22940;DHT22;11636;52.086;5.090;2023-04-03T13:25:40;14.60;51.70
22940;DHT22;11636;52.086;5.090;2023-04-03T13:28:22;14.50;53.00
22940;DHT22;11636;52.086;5.090;2023-04-03T13:31:07;14.60;52.90
22940;DHT22;11636;52.086;5.090;2023-04-03T13:33:37;14.70;52.60
22940;DHT22;11636;52.086;5.090;2023-04-03T13:36:19;14.90;52.70
22940;DHT22;11636;52.086;5.090;2023-04-03T13:39:05;15.00;53.30
22940;DHT22;11636;52.086;5.090;2023-04-03T13:41:41;14.90;50.70
22940;DHT22;11636;52.086;5.090;2023-04-03T13:44:27;14.80;52.00
22940;DHT22;11636;52.086;5.090;2023-04-03T13:49:45;14.70;51.40
22940;DHT22;11636;52.086;5.090;2023-04-03T13:55:18;14.80;52.40
22940;DHT22;11636;52.086;5.090;2023-04-03T14:00:38;15.20;52.80
22940;DHT22;11636;52.086;5.090;2023-04-03T14:03:40;15.40;52.50
22940;DHT22;11636;52.086;5.090;2023-04-03T14:06:08;15.40;52.30
22940;DHT22;11636;52.086;5.090;2023-04-03T14:08:42;15.30;51.70
22940;DHT22;11636;52.086;5.090;2023-04-03T14:11:18;15.20;51.60
22940;DHT22;11636;52.086;5.090;2023-04-03T14:13:51;15.20;51.50
22940;DHT22;11636;52.086;5.090;2023-04-03T14:16:29;15.30;51.60
22940;DHT22;11636;52.086;5.090;2023-04-03T14:19:04;15.30;51.40
22940;DHT22;11636;52.086;5.090;2023-04-03T14:21:31;15.10;50.20
22940;DHT22;11636;52.086;5.090;2023-04-03T14:23:59;15.00;50.70
22940;DHT22;11636;52.086;5.090;2023-04-03T14:26:32;14.80;49.50
22940;DHT22;11636;52.086;5.090;2023-04-03T14:28:59;14.80;51.10
22940;DHT22;11636;52.086;5.090;2023-04-03T14:31:27;14.90;51.70
22940;DHT22;11636;52.086;5.090;2023-04-03T14:34:00;15.10;51.80
22940;DHT22;11636;52.086;5.090;2023-04-03T14:36:29;15.10;51.30
22940;DHT22;11636;52.086;5.090;2023-04-03T14:39:05;15.20;51.20
22940;DHT22;11636;52.086;5.090;2023-04-03T14:41:33;15.10;51.20
22940;DHT22;11636;52.086;5.090;2023-04-03T14:44:00;15.10;50.20
22940;DHT22;11636;52.086;5.090;2023-04-03T14:46:38;15.00;50.70
22940;DHT22;11636;52.086;5.090;2023-04-03T14:49:26;15.00;51.50
22940;DHT22;11636;52.086;5.090;2023-04-03T14:52:00;15.00;51.10
22940;DHT22;11636;52.086;5.090;2023-04-03T14:54:27;14.80;50.80
22940;DHT22;11636;52.086;5.090;2023-04-03T14:56:58;14.60;49.90
22940;DHT22;11636;52.086;5.090;2023-04-03T14:59:31;14.40;50.50
22940;DHT22;11636;52.086;5.090;2023-04-03T15:01:59;14.20;51.40
22940;DHT22;11636;52.086;5.090;2023-04-03T15:04:26;14.10;51.60
22940;DHT22;11636;52.086;5.090;2023-04-03T15:07:01;14.00;51.90
22940;DHT22;11636;52.086;5.090;2023-04-03T15:09:27;13.90;52.20
22940;DHT22;11636;52.086;5.090;2023-04-03T15:12:01;13.80;52.10
22940;DHT22;11636;52.086;5.090;2023-04-03T15:14:28;13.60;51.40
22940;DHT22;11636;52.086;5.090;2023-04-03T15:17:19;13.50;52.20
22940;DHT22;11636;52.086;5.090;2023-04-03T15:19:48;13.40;52.80
22940;DHT22;11636;52.086;5.090;2023-04-03T15:22:21;13.30;53.40
22940;DHT22;11636;52.086;5.090;2023-04-03T15:24:49;13.20;53.20
22940;DHT22;11636;52.086;5.090;2023-04-03T15:27:16;13.10;54.20
22940;DHT22;11636;52.086;5.090;2023-04-03T15:29:49;13.20;55.00
22940;DHT22;11636;52.086;5.090;2023-04-03T15:32:16;13.20;54.90
22940;DHT22;11636;52.086;5.090;2023-04-03T15:34:50;13.10;54.90
22940;DHT22;11636;52.086;5.090;2023-04-03T15:37:20;13.10;55.20
22940;DHT22;11636;52.086;5.090;2023-04-03T15:39:53;13.00;55.40
22940;DHT22;11636;52.086;5.090;2023-04-03T15:42:26;13.00;55.70
22940;DHT22;11636;52.086;5.090;2023-04-03T15:44:53;12.90;55.80
22940;DHT22;11636;52.086;5.090;2023-04-03T15:47:21;12.80;56.10
22940;DHT22;11636;52.086;5.090;2023-04-03T15:49:54;12.70;56.40
22940;DHT22;11636;52.086;5.090;2023-04-03T15:52:22;12.50;56.50
22940;DHT22;11636;52.086;5.090;2023-04-03T15:54:49;12.30;57.40
22940;DHT22;11636;52.086;5.090;2023-04-03T15:57:23;12.20;57.80
22940;DHT22;11636;52.086;5.090;2023-04-03T15:59:53;12.10;58.20
22940;DHT22;11636;52.086;5.090;2023-04-03T16:02:27;11.90;57.80
22940;DHT22;11636;52.086;5.090;2023-04-03T16:04:54;11.70;58.10
22940;DHT22;11636;52.086;5.090;2023-04-03T16:07:22;11.60;58.10
22940;DHT22;11636;52.086;5.090;2023-04-03T16:09:56;11.40;58.40
22940;DHT22;11636;52.086;5.090;2023-04-03T16:12:23;11.30;58.80
22940;DHT22;11636;52.086;5.090;2023-04-03T16:14:57;11.20;59.40
22940;DHT22;11636;52.086;5.090;2023-04-03T16:17:23;11.00;59.60
22940;DHT22;11636;52.086;5.090;2023-04-03T16:19:51;10.90;60.10
22940;DHT22;11636;52.086;5.090;2023-04-03T16:22:26;10.80;60.90
22940;DHT22;11636;52.086;5.090;2023-04-03T16:24:54;10.70;61.60
22940;DHT22;11636;52.086;5.090;2023-04-03T16:27:28;10.70;62.40
22940;DHT22;11636;52.086;5.090;2023-04-03T16:29:58;10.70;61.90
22940;DHT22;11636;52.086;5.090;2023-04-03T16:32:32;10.60;62.20
22940;DHT22;11636;52.086;5.090;2023-04-03T16:34:59;10.50;62.40
22940;DHT22;11636;52.086;5.090;2023-04-03T16:37:27;10.50;62.80
22940;DHT22;11636;52.086;5.090;2023-04-03T16:40:01;10.40;63.40
22940;DHT22;11636;52.086;5.090;2023-04-03T16:42:34;10.30;63.10
22940;DHT22;11636;52.086;5.090;2023-04-03T16:45:08;10.20;63.90
22940;DHT22;11636;52.086;5.090;2023-04-03T16:47:42;10.20;64.30
22940;DHT22;11636;52.086;5.090;2023-04-03T16:50:09;10.20;65.00
22940;DHT22;11636;52.086;5.090;2023-04-03T16:52:37;10.10;65.60
22940;DHT22;11636;52.086;5.090;2023-04-03T16:55:09;10.00;66.00
22940;DHT22;11636;52.086;5.090;2023-04-03T16:57:36;10.00;66.40
22940;DHT22;11636;52.086;5.090;2023-04-03T17:00:04;10.00;66.90
22940;DHT22;11636;52.086;5.090;2023-04-03T17:02:39;9.90;67.30
22940;DHT22;11636;52.086;5.090;2023-04-03T17:05:07;9.90;67.70
22940;DHT22;11636;52.086;5.090;2023-04-03T17:07:41;9.80;68.30
22940;DHT22;11636;52.086;5.090;2023-04-03T17:10:08;9.80;68.60
22940;DHT22;11636;52.086;5.090;2023-04-03T17:12:37;9.70;69.20
22940;DHT22;11636;52.086;5.090;2023-04-03T17:15:11;9.60;69.70
22940;DHT22;11636;52.086;5.090;2023-04-03T17:17:38;9.50;70.00
22940;DHT22;11636;52.086;5.090;2023-04-03T17:20:18;9.50;70.70
22940;DHT22;11636;52.086;5.090;2023-04-03T17:22:45;9.40;71.20
22940;DHT22;11636;52.086;5.090;2023-04-03T17:25:12;9.40;71.20
22940;DHT22;11636;52.086;5.090;2023-04-03T17:28:06;9.30;71.30
22940;DHT22;11636;52.086;5.090;2023-04-03T17:30:33;9.20;72.40
22940;DHT22;11636;52.086;5.090;2023-04-03T17:33:07;9.10;73.10
22940;DHT22;11636;52.086;5.090;2023-04-03T17:35:34;9.10;73.50
22940;DHT22;11636;52.086;5.090;2023-04-03T17:38:04;9.00;73.60